Time;durP1;ratioP1;P1;durP2;ratioP2;P2;SDS_P1;SDS_P2;PMS_P1;PMS_P2;Temp;Humidity;BMP_temperature;BMP_pressure;BME280_temperature;BME280_humidity;BME280_pressure;Samples;Min_cycle;Max_cycle;Signal;HPM_P1;HPM_P2
2019/04/07 00:02:00;;;;;;;6.5;5.3;;;;;;;6.22;96.02148;944.6955;;;;
2019/04/07 00:04:26;;;;;;;7.6;5.3;;;;;;;6.32;95.15039;944.6799;;;;
2019/04/07 00:06:51;;;;;;;5.8;5.2;;;;;;;6.38;94.41504;944.7578;;;;
2019/04/07 00:09:16;;;;;;;8;5.7;;;;;;;6.48;93.50586;944.7262;;;;
2019/04/07 00:11:42;;;;;;;6.7;5;;;;;;;6.35;94.74219;944.728;;;;
2019/04/07 00:14:07;;;;;;;5.9;5.2;;;;;;;6.38;94.04785;944.6955;;;;
2019/04/07 00:16:32;;;;;;;6.9;5.7;;;;;;;6.52;93.2959;944.6624;;;;
2019/04/07 00:18:58;;;;;;;5.8;5.3;;;;;;;6.63;92.1709;944.6839;;;;
2019/04/07 00:21:22;;;;;;;7.4;5.7;;;;;;;6.62;92.53711;944.7267;;;;
2019/04/07 00:23:48;;;;;;;7.3;5.5;;;;;;;6.82;90.91406;944.5941;;;;
2019/04/07 00:26:13;;;;;;;7.7;5.5;;;;;;;6.86;90.48438;944.5478;;;;
2019/04/07 00:28:38;;;;;;;6;5.1;;;;;;;7.05;88.74023;944.5299;;;;
2019/04/07 00:31:03;;;;;;;6.6;5.3;;;;;;;6.88;90.08594;944.5326;;;;
2019/04/07 00:33:28;;;;;;;6.8;5.6;;;;;;;6.79;90.60547;944.5644;;;;
2019/04/07 00:35:53;;;;;;;7.7;5.1;;;;;;;6.63;91.79199;944.5647;;;;
2019/04/07 00:38:18;;;;;;;7;5.1;;;;;;;6.5;92.79785;944.5801;;;;
2019/04/07 00:40:44;;;;;;;8.7;5.3;;;;;;;6.5;93.08496;944.6222;;;;
2019/04/07 00:43:09;;;;;;;5.2;4.7;;;;;;;6.3;94.06445;944.543;;;;
2019/04/07 00:45:37;;;;;;;5.9;5.3;;;;;;;6.14;95.96973;944.5401;;;;
2019/04/07 00:48:03;;;;;;;6.6;5.7;;;;;;;6.2;95.71973;944.6005;;;;
2019/04/07 00:50:30;;;;;;;7;5.4;;;;;;;5.97;98.01074;944.6131;;;;
2019/04/07 00:52:55;;;;;;;6.8;5.2;;;;;;;5.77;99.05176;944.5554;;;;
2019/04/07 00:55:20;;;;;;;7.7;5.4;;;;;;;5.77;100;944.5634;;;;
2019/04/07 00:57:45;;;;;;;7.1;5.3;;;;;;;5.59;100;944.6376;;;;
2019/04/07 01:00:11;;;;;;;6.8;5.6;;;;;;;5.59;100;944.6553;;;;
2019/04/07 01:02:36;;;;;;;7.6;6.1;;;;;;;5.57;100;944.6705;;;;
2019/04/07 01:05:01;;;;;;;6.5;5.9;;;;;;;5.72;100;944.6158;;;;
2019/04/07 01:07:26;;;;;;;7.2;6;;;;;;;5.78;100;944.6256;;;;
2019/04/07 01:09:51;;;;;;;7.4;5.8;;;;;;;5.82;100;944.693;;;;
2019/04/07 01:12:17;;;;;;;6.5;5.8;;;;;;;5.82;100;944.7017;;;;
2019/04/07 01:14:41;;;;;;;8.4;5.7;;;;;;;5.76;100;944.7296;;;;
2019/04/07 01:17:07;;;;;;;8.7;5.7;;;;;;;5.7;100;944.6642;;;;
2019/04/07 01:19:32;;;;;;;6.9;5.7;;;;;;;5.66;100;944.7318;;;;
2019/04/07 01:21:57;;;;;;;7.5;5.5;;;;;;;5.59;100;944.6893;;;;
2019/04/07 01:24:22;;;;;;;6.5;5.9;;;;;;;5.35;100;944.6941;;;;
2019/04/07 01:26:48;;;;;;;7.1;6.2;;;;;;;5.14;100;944.6534;;;;
2019/04/07 01:29:12;;;;;;;7.8;6.9;;;;;;;5.04;100;944.6845;;;;
2019/04/07 01:31:41;;;;;;;8.3;7.2;;;;;;;5.03;100;944.6816;;;;
2019/04/07 01:34:09;;;;;;;9.2;7.5;;;;;;;4.95;100;944.6866;;;;
2019/04/07 01:36:32;;;;;;;9;7.7;;;;;;;4.92;100;944.7649;;;;
2019/04/07 01:38:57;;;;;;;9.3;7.8;;;;;;;4.87;100;944.7878;;;;
2019/04/07 01:41:38;;;;;;;10.2;7.1;;;;;;;4.91;100;944.7324;;;;
2019/04/07 01:43:53;;;;;;;8.5;7.6;;;;;;;4.75;100;944.6947;;;;
2019/04/07 01:46:39;;;;;;;8.6;7.7;;;;;;;4.63;100;944.7249;;;;
2019/04/07 01:51:21;;;;;;;10.4;7.5;;;;;;;4.5;100;944.6617;;;;
2019/04/07 01:58:38;;;;;;;10.2;9;;;;;;;4.46;100;944.6752;;;;
2019/04/07 02:00:57;;;;;;;12.2;9.5;;;;;;;4.49;100;944.701;;;;
2019/04/07 02:17:47;;;;;;;12.5;10.3;;;;;;;4.06;100;944.678;;;;
2019/04/07 02:20:56;;;;;;;12.4;10.1;;;;;;;4.06;100;944.7166;;;;
2019/04/07 02:23:33;;;;;;;10.8;9.4;;;;;;;4.03;100;944.6481;;;;
2019/04/07 02:28:16;;;;;;;11.5;9.6;;;;;;;3.87;100;944.7361;;;;
2019/04/07 02:33:19;;;;;;;10.1;9;;;;;;;3.96;100;944.79;;;;
2019/04/07 02:35:38;;;;;;;13.6;9.4;;;;;;;4;100;944.8193;;;;
2019/04/07 02:37:54;;;;;;;12.7;9.6;;;;;;;3.99;100;944.7402;;;;
2019/04/07 02:40:37;;;;;;;13.5;11.3;;;;;;;3.79;100;944.7611;;;;
2019/04/07 02:43:09;;;;;;;14.2;11.4;;;;;;;3.64;100;944.6833;;;;
2019/04/07 02:45:31;;;;;;;14.3;11.8;;;;;;;3.86;100;944.6864;;;;
2019/04/07 02:48:57;;;;;;;12.4;10.6;;;;;;;3.7;100;944.7112;;;;
2019/04/07 02:50:25;;;;;;;11.9;10.6;;;;;;;3.74;100;944.6733;;;;
2019/04/07 02:55:28;;;;;;;14.4;11.4;;;;;;;3.87;100;944.7059;;;;
2019/04/07 03:02:45;;;;;;;12.4;10.7;;;;;;;4.14;100;944.7753;;;;
2019/04/07 03:06:43;;;;;;;13.1;10;;;;;;;4.22;100;944.8172;;;;
2019/04/07 03:08:35;;;;;;;11.6;10;;;;;;;4.07;100;944.7617;;;;
2019/04/07 03:10:19;;;;;;;12.1;10.7;;;;;;;4.24;100;944.8155;;;;
2019/04/07 03:12:50;;;;;;;11.9;10.1;;;;;;;4.09;100;944.8519;;;;
2019/04/07 03:15:09;;;;;;;13;11.6;;;;;;;4.01;100;944.8689;;;;
2019/04/07 03:17:28;;;;;;;15.9;11.9;;;;;;;4.21;100;944.9023;;;;
2019/04/07 03:20:05;;;;;;;12.5;11.2;;;;;;;4.16;100;944.9127;;;;
2019/04/07 03:22:07;;;;;;;12.5;10.7;;;;;;;4.21;100;944.9239;;;;
2019/04/07 03:24:55;;;;;;;11.7;10.3;;;;;;;4.08;100;944.9543;;;;
2019/04/07 03:36:44;;;;;;;10.8;9.7;;;;;;;4.2;100;945.0809;;;;
2019/04/07 03:39:21;;;;;;;12;9.7;;;;;;;4.09;100;944.9529;;;;
2019/04/07 03:45:15;;;;;;;11.3;9.9;;;;;;;4.21;100;944.9529;;;;
2019/04/07 03:47:45;;;;;;;10.8;9.7;;;;;;;4.19;100;944.9137;;;;
2019/04/07 03:50:20;;;;;;;10.5;9.1;;;;;;;4.21;100;944.8528;;;;
2019/04/07 03:55:06;;;;;;;10.4;9.3;;;;;;;4.2;100;944.8828;;;;
2019/04/07 03:58:02;;;;;;;10.7;9.6;;;;;;;4.16;100;944.9459;;;;
2019/04/07 04:00:26;;;;;;;9.7;8.8;;;;;;;4.19;100;944.897;;;;
2019/04/07 04:03:10;;;;;;;10.1;9.1;;;;;;;4.06;100;944.9353;;;;
2019/04/07 04:05:34;;;;;;;10.7;9.6;;;;;;;4.05;100;944.9702;;;;
2019/04/07 04:08:35;;;;;;;10.8;9.7;;;;;;;3.99;100;944.9044;;;;
2019/04/07 04:10:19;;;;;;;11.4;10.3;;;;;;;3.82;100;944.8582;;;;
2019/04/07 04:15:18;;;;;;;14.2;11.6;;;;;;;3.71;100;944.9163;;;;
2019/04/07 04:17:31;;;;;;;14.1;11.2;;;;;;;3.6;100;944.8898;;;;
2019/04/07 04:19:58;;;;;;;12.3;10.8;;;;;;;3.64;100;944.9317;;;;
2019/04/07 04:22:23;;;;;;;12.6;11.3;;;;;;;3.6;100;944.9064;;;;
2019/04/07 04:24:50;;;;;;;13.2;11.6;;;;;;;3.6;100;944.957;;;;
2019/04/07 04:27:13;;;;;;;12.6;11.3;;;;;;;3.57;100;944.9728;;;;
2019/04/07 04:29:38;;;;;;;15.3;12.9;;;;;;;3.51;100;944.9906;;;;
2019/04/07 04:32:03;;;;;;;11.4;10.2;;;;;;;3.48;100;945.0314;;;;
2019/04/07 04:34:29;;;;;;;17.3;12.6;;;;;;;3.4;100;945.0186;;;;
2019/04/07 04:36:54;;;;;;;14;12.4;;;;;;;3.38;100;945.0549;;;;
2019/04/07 04:39:19;;;;;;;15.5;13.1;;;;;;;3.34;100;945.0583;;;;
2019/04/07 04:41:44;;;;;;;15.9;12.8;;;;;;;3.37;100;945.1691;;;;
2019/04/07 04:44:09;;;;;;;14.3;12.8;;;;;;;3.4;100;945.1163;;;;
2019/04/07 04:46:34;;;;;;;15.9;14;;;;;;;3.31;100;945.1666;;;;
2019/04/07 04:49:00;;;;;;;16.4;14;;;;;;;3.25;100;945.248;;;;
2019/04/07 04:51:25;;;;;;;15.2;12.6;;;;;;;3.2;100;945.295;;;;
2019/04/07 04:53:50;;;;;;;16.2;13.9;;;;;;;3.16;100;945.3201;;;;
2019/04/07 04:56:15;;;;;;;18.4;14.5;;;;;;;3.1;100;945.2797;;;;
2019/04/07 04:58:40;;;;;;;16.1;13.3;;;;;;;3.07;100;945.2958;;;;
2019/04/07 05:01:05;;;;;;;18.2;14;;;;;;;3.03;100;945.3076;;;;
2019/04/07 05:03:30;;;;;;;18.5;14.7;;;;;;;3.02;100;945.3467;;;;
2019/04/07 05:05:55;;;;;;;16.8;14.9;;;;;;;3.05;100;945.3605;;;;
2019/04/07 05:08:21;;;;;;;17.4;15.2;;;;;;;3.14;100;945.3555;;;;
2019/04/07 05:10:46;;;;;;;18.6;15.6;;;;;;;3.28;100;945.4218;;;;
2019/04/07 05:13:11;;;;;;;16.4;14.5;;;;;;;3.48;100;945.4102;;;;
2019/04/07 05:15:36;;;;;;;15;12.3;;;;;;;3.94;100;945.4619;;;;
2019/04/07 05:18:01;;;;;;;12.8;11;;;;;;;4.56;100;945.4266;;;;
2019/04/07 05:20:26;;;;;;;14.1;11.8;;;;;;;5.23;100;945.5045;;;;
2019/04/07 05:22:52;;;;;;;11.8;10.4;;;;;;;5.61;100;945.5268;;;;
2019/04/07 05:25:18;;;;;;;12.2;9.8;;;;;;;5.93;100;945.552;;;;
2019/04/07 05:27:42;;;;;;;10.4;9.3;;;;;;;6.31;100;945.535;;;;
2019/04/07 05:30:08;;;;;;;11;9.6;;;;;;;6.5;100;945.6584;;;;
2019/04/07 05:32:32;;;;;;;9.7;8.1;;;;;;;6.71;100;945.6983;;;;
2019/04/07 05:34:57;;;;;;;11.3;8.9;;;;;;;6.99;100;945.705;;;;
2019/04/07 05:37:22;;;;;;;9.9;8.6;;;;;;;7.33;99.62305;945.64;;;;
2019/04/07 05:39:48;;;;;;;9.7;8.2;;;;;;;7.42;100;945.6725;;;;
2019/04/07 05:42:13;;;;;;;9.9;8.9;;;;;;;7.64;98.77148;945.7695;;;;
2019/04/07 05:44:38;;;;;;;10;9;;;;;;;8.05;93.65332;945.7523;;;;
2019/04/07 05:47:03;;;;;;;11;9;;;;;;;8.36;92.29004;945.8298;;;;
2019/04/07 05:49:29;;;;;;;10.5;9;;;;;;;8.65;90.41113;945.7791;;;;
2019/04/07 05:51:54;;;;;;;11.8;9.3;;;;;;;9.03;86.375;945.8481;;;;
2019/04/07 05:54:18;;;;;;;10.9;8.9;;;;;;;9.13;84.91797;945.7885;;;;
2019/04/07 05:56:44;;;;;;;7.9;6.7;;;;;;;9.43;79.08691;945.8162;;;;
2019/04/07 05:59:09;;;;;;;7.7;6.5;;;;;;;9.63;76.76367;945.796;;;;
2019/04/07 06:01:34;;;;;;;9.7;8.1;;;;;;;9.85;77.3125;945.7678;;;;
2019/04/07 06:03:59;;;;;;;8.1;5.4;;;;;;;10.3;72.8125;945.789;;;;
2019/04/07 06:06:24;;;;;;;12.8;9.3;;;;;;;10.47;73.30664;945.8438;;;;
2019/04/07 06:08:52;;;;;;;7.3;5.8;;;;;;;10.74;69.52246;945.8691;;;;
2019/04/07 06:11:15;;;;;;;6.6;5.2;;;;;;;10.69;68.22461;945.8039;;;;
2019/04/07 06:13:40;;;;;;;4.6;4.2;;;;;;;10.88;66.7002;945.822;;;;
2019/04/07 06:16:05;;;;;;;4.6;4.1;;;;;;;11.42;65.2373;945.726;;;;
2019/04/07 06:18:30;;;;;;;5;4.1;;;;;;;11.73;62.72461;945.7545;;;;
2019/04/07 06:20:55;;;;;;;4.8;4.3;;;;;;;12.04;61.43164;945.7084;;;;
2019/04/07 06:23:20;;;;;;;5.8;4.7;;;;;;;12.26;60.68359;945.6577;;;;
2019/04/07 06:25:45;;;;;;;5.5;4.4;;;;;;;12.5;59.86621;945.6506;;;;
2019/04/07 06:28:11;;;;;;;5.1;4.6;;;;;;;13.18;56.9834;945.635;;;;
2019/04/07 06:30:42;;;;;;;5;3.7;;;;;;;12.72;58.08984;945.5825;;;;
2019/04/07 06:33:04;;;;;;;6.2;4.9;;;;;;;13.01;57.1377;945.5638;;;;
2019/04/07 06:35:34;;;;;;;5.5;3.8;;;;;;;12.04;59.16211;945.5204;;;;
2019/04/07 06:38:01;;;;;;;4.3;3.9;;;;;;;11.59;61.17188;945.5499;;;;
2019/04/07 06:40:30;;;;;;;5;3.7;;;;;;;11.48;61.66699;945.4919;;;;
2019/04/07 06:42:55;;;;;;;3.7;3.4;;;;;;;11.74;60.7959;945.6373;;;;
2019/04/07 06:45:23;;;;;;;4.3;3.7;;;;;;;11.13;63.4043;945.6238;;;;
2019/04/07 06:47:51;;;;;;;4.2;3.8;;;;;;;11.19;63.39063;945.662;;;;
2019/04/07 06:53:22;;;;;;;4.1;3.7;;;;;;;11.68;61.22949;945.6797;;;;
2019/04/07 06:55:57;;;;;;;6.9;3.6;;;;;;;11.61;61.58008;945.6461;;;;
2019/04/07 06:58:32;;;;;;;5.1;3.7;;;;;;;11.59;61.32129;945.6994;;;;
2019/04/07 07:15:08;;;;;;;4.1;3.7;;;;;;;13.12;56.88184;945.8239;;;;
2019/04/07 07:24:21;;;;;;;4.7;3.7;;;;;;;15.39;48.73438;945.87;;;;
2019/04/07 07:26:46;;;;;;;4.1;3.7;;;;;;;15.29;48.62891;945.8972;;;;
2019/04/07 07:29:11;;;;;;;7;5.3;;;;;;;15.92;47.55957;945.8992;;;;
2019/04/07 07:31:36;;;;;;;4.6;4.2;;;;;;;16.29;45.87207;945.8657;;;;
2019/04/07 07:34:03;;;;;;;5.9;5.2;;;;;;;16.45;45.52539;945.8666;;;;
2019/04/07 07:36:28;;;;;;;5.7;3.8;;;;;;;16.48;45.16406;945.8915;;;;
2019/04/07 07:38:54;;;;;;;5.4;4.2;;;;;;;16.65;45.39258;945.9014;;;;
2019/04/07 07:41:19;;;;;;;5.1;4.6;;;;;;;17.14;43.70117;945.8215;;;;
2019/04/07 07:43:44;;;;;;;5;4.2;;;;;;;17.37;43.25195;945.9027;;;;
2019/04/07 07:46:11;;;;;;;6.1;4.1;;;;;;;17.22;43.41406;945.9169;;;;
2019/04/07 07:48:37;;;;;;;5.3;3.8;;;;;;;18.03;41.5;945.8948;;;;
2019/04/07 07:51:02;;;;;;;5;4.3;;;;;;;18.26;40.69531;945.9405;;;;
2019/04/07 07:53:51;;;;;;;4.3;3.9;;;;;;;18.36;40.3623;945.9807;;;;
2019/04/07 07:56:16;;;;;;;4.3;3.9;;;;;;;17.43;42.62109;945.9761;;;;
2019/04/07 07:58:41;;;;;;;5.3;4.4;;;;;;;18.45;40.70117;945.9235;;;;
2019/04/07 08:01:06;;;;;;;4.8;4.4;;;;;;;18.64;40.64844;945.8719;;;;
2019/04/07 08:03:31;;;;;;;5.1;4.6;;;;;;;18.21;40.92773;945.9347;;;;
2019/04/07 08:05:56;;;;;;;5.6;4.7;;;;;;;17.35;43.2041;945.9788;;;;
2019/04/07 08:08:24;;;;;;;6.4;5.4;;;;;;;16.99;44.03906;946.06;;;;
2019/04/07 08:10:49;;;;;;;7.1;5.7;;;;;;;16.64;45.02637;946.0239;;;;
2019/04/07 08:13:18;;;;;;;5.5;5;;;;;;;16.14;45.98633;946.0329;;;;
2019/04/07 08:15:43;;;;;;;6.4;5.4;;;;;;;16.56;45.29004;946.0094;;;;
2019/04/07 08:18:11;;;;;;;5.9;5.3;;;;;;;16.46;45.39648;946.0589;;;;
2019/04/07 08:20:39;;;;;;;6.9;5.7;;;;;;;16.76;45.21484;946.0483;;;;
2019/04/07 08:23:05;;;;;;;5.4;4.9;;;;;;;16.89;44.2168;946.097;;;;
2019/04/07 08:25:30;;;;;;;5.7;5.1;;;;;;;16.67;45.04199;946.1431;;;;
2019/04/07 08:27:55;;;;;;;5.4;4.9;;;;;;;17.01;44.12305;946.1651;;;;
2019/04/07 08:30:21;;;;;;;6.9;5.3;;;;;;;16.85;44.55469;946.1208;;;;
2019/04/07 08:32:47;;;;;;;5.8;5.2;;;;;;;17.11;44.12109;946.1796;;;;
2019/04/07 08:35:15;;;;;;;6;5.4;;;;;;;17.63;42.54688;946.1862;;;;
2019/04/07 08:37:40;;;;;;;6.8;6.1;;;;;;;18.22;41.65918;946.1703;;;;
2019/04/07 08:40:05;;;;;;;7.7;5.5;;;;;;;18.97;39.75586;946.1509;;;;
2019/04/07 08:42:33;;;;;;;6.4;5.5;;;;;;;19.32;38.75684;946.1984;;;;
2019/04/07 08:44:59;;;;;;;6.9;5.6;;;;;;;19.54;38.20801;946.241;;;;
2019/04/07 08:47:24;;;;;;;6;5.5;;;;;;;19.18;38.54395;946.315;;;;
2019/04/07 08:49:50;;;;;;;5.8;5.2;;;;;;;19.68;38.17285;946.2526;;;;
2019/04/07 08:52:17;;;;;;;5.6;5;;;;;;;20.3;37.01758;946.3142;;;;
2019/04/07 08:54:42;;;;;;;5.9;5.4;;;;;;;20;37.24121;946.308;;;;
2019/04/07 08:57:07;;;;;;;6;5.3;;;;;;;20.11;37.17969;946.3503;;;;
2019/04/07 08:59:32;;;;;;;5.4;4.9;;;;;;;19.87;37.24219;946.368;;;;
2019/04/07 09:01:57;;;;;;;6.1;5.4;;;;;;;19.14;38.50586;946.4041;;;;
2019/04/07 09:04:26;;;;;;;7.5;6.1;;;;;;;17.96;41.00977;946.3669;;;;
2019/04/07 09:06:51;;;;;;;6.2;5.6;;;;;;;16.69;44.33789;946.342;;;;
2019/04/07 09:09:17;;;;;;;6.2;5.6;;;;;;;17.36;43.33398;946.3389;;;;
2019/04/07 09:11:42;;;;;;;6.2;5.6;;;;;;;17.9;41.83008;946.264;;;;
2019/04/07 09:14:07;;;;;;;6.8;6.1;;;;;;;17.39;43.18262;946.2489;;;;
2019/04/07 09:16:39;;;;;;;6.1;5.5;;;;;;;17.14;44.41895;946.2823;;;;
2019/04/07 09:19:08;;;;;;;7;6.3;;;;;;;17.14;44.04297;946.1919;;;;
2019/04/07 09:21:32;;;;;;;6.4;5.8;;;;;;;17.92;42.02148;946.2137;;;;
2019/04/07 09:24:16;;;;;;;6.2;5.7;;;;;;;17.78;42.51465;946.1833;;;;
2019/04/07 09:26:22;;;;;;;6.4;5.8;;;;;;;17.79;42.50391;946.234;;;;
2019/04/07 09:28:52;;;;;;;7.4;6.4;;;;;;;16.7;45.7627;946.22;;;;
2019/04/07 09:33:45;;;;;;;8.1;6.6;;;;;;;16.5;45.70703;946.2971;;;;
2019/04/07 09:39:59;;;;;;;7.3;6.6;;;;;;;16.3;46.77832;946.3403;;;;
2019/04/07 09:42:18;;;;;;;7.5;6.7;;;;;;;16.83;45.15234;946.296;;;;
2019/04/07 09:53:29;;;;;;;6.7;6;;;;;;;18.56;41.00684;946.466;;;;
2019/04/07 09:58:15;;;;;;;6.7;6.1;;;;;;;18.68;40.7334;946.4609;;;;
2019/04/07 10:00:38;;;;;;;7.5;6;;;;;;;18.69;40.55859;946.3811;;;;
2019/04/07 10:03:07;;;;;;;6.7;6.1;;;;;;;18.81;40.45117;946.4133;;;;
2019/04/07 10:11:46;;;;;;;7.5;5.7;;;;;;;20.61;36.71094;946.4312;;;;
2019/04/07 10:19:17;;;;;;;6.5;5.7;;;;;;;19.65;38.89355;946.5115;;;;
2019/04/07 10:21:35;;;;;;;6.6;6;;;;;;;19.89;38.5;946.4992;;;;
2019/04/07 10:23:55;;;;;;;7.2;5.9;;;;;;;20.19;37.71973;946.5144;;;;
2019/04/07 10:28:48;;;;;;;6.2;5.6;;;;;;;20.71;36.87305;946.4667;;;;
2019/04/07 10:31:47;;;;;;;6.8;5.8;;;;;;;20.56;37.05176;946.4348;;;;
2019/04/07 10:34:18;;;;;;;6.6;6;;;;;;;20.26;37.84473;946.4241;;;;
2019/04/07 10:36:43;;;;;;;7.2;6.6;;;;;;;19.82;38.32813;946.4197;;;;
2019/04/07 10:42:11;;;;;;;8.1;7.2;;;;;;;20.79;36.94043;946.4916;;;;
2019/04/07 10:43:33;;;;;;;8.2;7.4;;;;;;;20.63;37.65039;946.4235;;;;
2019/04/07 10:49:38;;;;;;;7.6;6.9;;;;;;;21.32;36.11621;946.4156;;;;
2019/04/07 11:01:22;;;;;;;8.4;7.6;;;;;;;20.06;38.43164;946.4925;;;;
2019/04/07 11:03:51;;;;;;;7.8;7.1;;;;;;;20.4;38.04688;946.4314;;;;
2019/04/07 11:06:20;;;;;;;8.1;7.4;;;;;;;20.14;38.6875;946.4271;;;;
2019/04/07 11:08:54;;;;;;;7.9;7.1;;;;;;;21.12;37.06152;946.3333;;;;
2019/04/07 11:28:06;;;;;;;8.2;7.5;;;;;;;23.98;32.08691;946.4235;;;;
2019/04/07 11:33:03;;;;;;;8.3;7.6;;;;;;;25.04;29.96973;946.3254;;;;
2019/04/07 11:35:24;;;;;;;7.6;6.7;;;;;;;26.11;28.19043;946.3167;;;;
2019/04/07 11:40:17;;;;;;;7.2;6.6;;;;;;;26.1;28.12988;946.2787;;;;
2019/04/07 11:42:51;;;;;;;7.1;6.5;;;;;;;28.38;26.00293;946.2411;;;;
2019/04/07 11:45:31;;;;;;;7.6;6.9;;;;;;;29.73;24.11816;946.2302;;;;
2019/04/07 11:47:34;;;;;;;7.7;6;;;;;;;29.47;23.84961;946.2281;;;;
2019/04/07 11:50:05;;;;;;;6.7;6.1;;;;;;;28.51;24.94727;946.2112;;;;
2019/04/07 11:52:27;;;;;;;7.2;6.6;;;;;;;27.05;26.57617;946.2625;;;;
2019/04/07 11:55:33;;;;;;;6.9;5.9;;;;;;;25.76;28.49316;946.2458;;;;
2019/04/07 11:57:30;;;;;;;7.2;6.5;;;;;;;25.43;29.2998;946.2209;;;;
2019/04/07 12:04:58;;;;;;;7.6;6;;;;;;;27.34;26.60547;946.1919;;;;
2019/04/07 12:07:26;;;;;;;7;6.4;;;;;;;29.21;24.64648;946.2371;;;;
2019/04/07 12:12:37;;;;;;;7.3;6.7;;;;;;;27.5;26;946.2266;;;;
2019/04/07 12:22:38;;;;;;;7.7;6.9;;;;;;;26.74;27.37598;946.187;;;;
2019/04/07 12:25:05;;;;;;;7;6.2;;;;;;;29.3;24.68848;946.2132;;;;
2019/04/07 12:33:23;;;;;;;7.4;6.6;;;;;;;28.05;25.69434;946.2493;;;;
2019/04/07 12:35:18;;;;;;;6.6;6;;;;;;;28.65;24.83398;946.267;;;;
2019/04/07 12:37:55;;;;;;;7.4;6.7;;;;;;;24.75;29.69824;946.2997;;;;
2019/04/07 12:40:32;;;;;;;8;7.2;;;;;;;22.82;32.52832;946.317;;;;
2019/04/07 12:45:24;;;;;;;8.8;8.1;;;;;;;19.88;38.74707;946.28;;;;
2019/04/07 12:47:37;;;;;;;9.3;8.4;;;;;;;18.45;41.66992;946.3287;;;;
2019/04/07 13:00:52;;;;;;;9.3;8.4;;;;;;;21.52;36.0127;946.1053;;;;
2019/04/07 13:03:41;;;;;;;9.4;8.5;;;;;;;22.5;33.94727;946.1302;;;;
2019/04/07 13:08:12;;;;;;;9.6;8.6;;;;;;;22.3;33.97949;946.1049;;;;
2019/04/07 13:10:33;;;;;;;8.2;7.4;;;;;;;23.48;32.40918;946.1036;;;;
2019/04/07 13:13:02;;;;;;;9.8;8.8;;;;;;;24.02;31.37207;946.1072;;;;
2019/04/07 13:15:29;;;;;;;9.6;8.8;;;;;;;22.48;33.69531;946.1903;;;;
2019/04/07 13:20:42;;;;;;;9.7;8.5;;;;;;;21.08;36.53613;946.2098;;;;
2019/04/07 13:23:34;;;;;;;9.5;8.6;;;;;;;19.97;38.75586;946.1912;;;;
2019/04/07 13:25:27;;;;;;;9.2;8.4;;;;;;;20.06;38.91797;946.1384;;;;
2019/04/07 13:27:34;;;;;;;10.2;8.7;;;;;;;20.52;38.03223;946.1517;;;;
2019/04/07 13:30:02;;;;;;;8.7;8;;;;;;;20.51;37.75879;946.1194;;;;
2019/04/07 13:33:15;;;;;;;9.2;8.4;;;;;;;19.75;39.66016;946.1158;;;;
2019/04/07 13:44:50;;;;;;;9.2;8.3;;;;;;;19.25;40.98828;946.1188;;;;
2019/04/07 13:47:11;;;;;;;9.8;8.8;;;;;;;19.41;40.2334;946.171;;;;
2019/04/07 13:55:26;;;;;;;9.2;8.2;;;;;;;19.02;41.49902;946.1127;;;;
2019/04/07 13:57:41;;;;;;;9.3;8.4;;;;;;;18.99;41.75586;946.1099;;;;
2019/04/07 14:00:17;;;;;;;10.3;8.2;;;;;;;18.75;42.69141;946.0478;;;;
2019/04/07 14:04:55;;;;;;;9.7;8.8;;;;;;;18.92;42.0332;946.1287;;;;
2019/04/07 14:07:37;;;;;;;8.3;7.5;;;;;;;19.2;41.51563;946.1664;;;;
2019/04/07 14:17:16;;;;;;;9.2;8.3;;;;;;;18.37;43.00781;946.1941;;;;
2019/04/07 14:20:12;;;;;;;9.4;8.3;;;;;;;18.49;43.19727;946.2659;;;;
2019/04/07 14:22:16;;;;;;;8.9;8;;;;;;;18.89;42.55078;946.241;;;;
2019/04/07 14:24:31;;;;;;;9.4;8.5;;;;;;;18.87;41.94531;946.3014;;;;
2019/04/07 14:27:05;;;;;;;11.4;10.2;;;;;;;18.24;43.23242;946.2792;;;;
2019/04/07 14:32:12;;;;;;;10.2;9.1;;;;;;;18.56;43.75879;946.2859;;;;
2019/04/07 14:34:06;;;;;;;9.1;8.2;;;;;;;18.64;43.90918;946.2859;;;;
2019/04/07 14:36:45;;;;;;;9.8;8.9;;;;;;;18.56;44.1377;946.3068;;;;
2019/04/07 14:38:56;;;;;;;10.1;9.1;;;;;;;17.84;45.87012;946.2862;;;;
2019/04/07 14:44:02;;;;;;;9.6;8.6;;;;;;;17.76;46.20313;946.2048;;;;
2019/04/07 14:46:12;;;;;;;9.8;8.9;;;;;;;17.85;46.01172;946.3148;;;;
2019/04/07 14:48:45;;;;;;;11.3;9.6;;;;;;;16.82;48.70508;946.293;;;;
2019/04/07 14:51:20;;;;;;;9.8;8.8;;;;;;;16.82;48.76465;946.3139;;;;
2019/04/07 14:53:25;;;;;;;10.7;9.6;;;;;;;16.7;49.33887;946.2637;;;;
2019/04/07 14:56:02;;;;;;;10.8;9.8;;;;;;;17.13;48.35059;946.2459;;;;
2019/04/07 14:58:18;;;;;;;9.4;8.6;;;;;;;17.62;47.41406;946.2479;;;;
2019/04/07 15:01:14;;;;;;;10.6;9.5;;;;;;;18.04;46.7168;946.363;;;;
2019/04/07 15:03:00;;;;;;;9.6;8.6;;;;;;;18.33;46.18066;946.3436;;;;
2019/04/07 15:05:30;;;;;;;10.9;10;;;;;;;18.12;46.22949;946.4235;;;;
2019/04/07 15:08:10;;;;;;;10.1;9.1;;;;;;;18.02;46.65625;946.4391;;;;
2019/04/07 15:10:25;;;;;;;10.7;9.7;;;;;;;18.01;46.81934;946.4114;;;;
2019/04/07 15:12:49;;;;;;;10.4;9.5;;;;;;;18.28;46.08008;946.4983;;;;
2019/04/07 15:15:08;;;;;;;10.4;9.4;;;;;;;18.48;45.53516;946.5051;;;;
2019/04/07 15:17:37;;;;;;;10.3;9.4;;;;;;;18.08;46.41406;946.4604;;;;
2019/04/07 15:20:01;;;;;;;10.2;9.2;;;;;;;18;46.5;946.4775;;;;
2019/04/07 15:23:19;;;;;;;10.2;9.2;;;;;;;18.31;45.87109;946.4197;;;;
2019/04/07 15:26:32;;;;;;;10.7;9.7;;;;;;;18.34;45.69727;946.42;;;;
2019/04/07 15:29:44;;;;;;;11.6;10.4;;;;;;;17.95;46.94336;946.4716;;;;
2019/04/07 15:32:09;;;;;;;10.8;9.8;;;;;;;17.63;47.93359;946.4277;;;;
2019/04/07 15:34:34;;;;;;;11.3;9.7;;;;;;;17.63;47.8291;946.4058;;;;
2019/04/07 15:37:00;;;;;;;11.8;10.7;;;;;;;16.8;49.71582;946.4285;;;;
2019/04/07 15:39:26;;;;;;;10.4;9.5;;;;;;;17.04;49.30762;946.5126;;;;
2019/04/07 15:41:54;;;;;;;11.1;10;;;;;;;16.42;50.49414;946.4819;;;;
2019/04/07 15:44:19;;;;;;;11;9.9;;;;;;;16.23;51.08398;946.4794;;;;
2019/04/07 15:46:44;;;;;;;10.7;9.7;;;;;;;16.63;50.08398;946.4545;;;;
2019/04/07 15:49:13;;;;;;;11.2;10;;;;;;;16.48;50.21973;946.4601;;;;
2019/04/07 15:51:38;;;;;;;11.2;10.2;;;;;;;16.37;50.39453;946.4683;;;;
2019/04/07 15:54:06;;;;;;;11.3;10.2;;;;;;;16.27;50.4541;946.5037;;;;
2019/04/07 15:56:31;;;;;;;11.3;10.1;;;;;;;16.32;50.35352;946.5098;;;;
2019/04/07 15:59:30;;;;;;;11.7;10.4;;;;;;;16.21;49.93066;946.5511;;;;
2019/04/07 16:02:42;;;;;;;10.7;9.7;;;;;;;15.92;51.25977;946.5641;;;;
2019/04/07 16:05:57;;;;;;;12.4;9.8;;;;;;;15.9;51.5625;946.5724;;;;
2019/04/07 16:09:12;;;;;;;10.4;9.4;;;;;;;16.06;51.1582;946.54;;;;
2019/04/07 16:12:25;;;;;;;12.2;11;;;;;;;15.46;52.47266;946.4901;;;;
2019/04/07 16:15:39;;;;;;;10.8;9.7;;;;;;;15.54;52.6582;946.5511;;;;
2019/04/07 16:18:57;;;;;;;11.4;10.3;;;;;;;15.6;52.81738;946.5345;;;;
2019/04/07 16:22:12;;;;;;;10.8;9.8;;;;;;;15.84;51.9541;946.5467;;;;
2019/04/07 16:25:26;;;;;;;15.5;13.2;;;;;;;15.68;52.33398;946.6563;;;;
2019/04/07 16:28:41;;;;;;;10.1;9.1;;;;;;;15.83;51.94141;946.5904;;;;
2019/04/07 16:31:03;;;;;;;9.8;8.9;;;;;;;15.93;51.72949;946.6312;;;;
2019/04/07 16:33:29;;;;;;;10;9.1;;;;;;;15.92;52.03418;946.6593;;;;
2019/04/07 16:35:54;;;;;;;9.6;8.7;;;;;;;16.09;51.29199;946.6373;;;;
2019/04/07 16:38:19;;;;;;;9.6;8.7;;;;;;;15.95;51.5332;946.6163;;;;
2019/04/07 16:40:44;;;;;;;10.4;9.4;;;;;;;15.84;51.73145;946.6973;;;;
2019/04/07 16:43:21;;;;;;;9.8;8.9;;;;;;;15.75;51.95508;946.6192;;;;
2019/04/07 16:45:46;;;;;;;10.4;9.3;;;;;;;15.59;52.2998;946.699;;;;
2019/04/07 16:48:11;;;;;;;9.3;8.4;;;;;;;15.43;52.62109;946.705;;;;
2019/04/07 16:50:35;;;;;;;10;9;;;;;;;15.4;52.59375;946.7136;;;;
2019/04/07 16:53:00;;;;;;;17.3;13.8;;;;;;;15.24;53.1377;946.7491;;;;
2019/04/07 16:56:35;;;;;;;18.7;15.5;;;;;;;15.07;53.57422;946.7526;;;;
2019/04/07 16:59:48;;;;;;;10;9;;;;;;;14.85;54.15625;946.6937;;;;
2019/04/07 17:02:18;;;;;;;10.9;9.6;;;;;;;14.71;54.63086;946.7659;;;;
2019/04/07 17:04:39;;;;;;;9.2;8.3;;;;;;;14.66;54.4375;946.7892;;;;
2019/04/07 17:07:04;;;;;;;9.2;8.3;;;;;;;14.59;54.62793;946.7307;;;;
2019/04/07 17:09:29;;;;;;;9.1;8.2;;;;;;;14.52;54.60742;946.7966;;;;
2019/04/07 17:11:54;;;;;;;8.5;7.7;;;;;;;14.51;54.68848;946.7679;;;;
2019/04/07 17:14:19;;;;;;;9.7;7.8;;;;;;;14.49;54.86035;946.7929;;;;
2019/04/07 17:16:44;;;;;;;10.7;9.7;;;;;;;14.43;55.21582;946.7759;;;;
2019/04/07 17:19:09;;;;;;;8.5;7.6;;;;;;;14.42;55.22559;946.8065;;;;
2019/04/07 17:21:35;;;;;;;9.5;8.1;;;;;;;14.35;55.19434;946.8546;;;;
2019/04/07 17:24:04;;;;;;;8.3;7.5;;;;;;;14.35;55.20605;946.8764;;;;
2019/04/07 17:26:30;;;;;;;9.1;8.1;;;;;;;14.32;55.15625;946.9874;;;;
2019/04/07 17:28:56;;;;;;;9.3;8.3;;;;;;;14.24;55.40234;946.9601;;;;
2019/04/07 17:31:19;;;;;;;8.5;7.7;;;;;;;14.14;56.0332;947.0854;;;;
2019/04/07 17:33:47;;;;;;;8.9;8;;;;;;;14.06;56.20996;947.0538;;;;
2019/04/07 17:36:12;;;;;;;10.1;9.2;;;;;;;14;56.45898;947.0491;;;;
2019/04/07 17:41:03;;;;;;;8.3;7.5;;;;;;;13.87;57.06152;947.0463;;;;
2019/04/07 17:43:37;;;;;;;10.7;8.5;;;;;;;13.81;57.44043;947.0973;;;;
2019/04/07 17:46:53;;;;;;;8.9;8.1;;;;;;;13.72;57.52148;947.1046;;;;
2019/04/07 17:48:41;;;;;;;8.7;7.9;;;;;;;13.63;57.9541;947.0786;;;;
2019/04/07 17:53:18;;;;;;;7.1;5.9;;;;;;;13.22;59.31055;947.1392;;;;
2019/04/07 18:18:55;;;;;;;7.1;6.4;;;;;;;12.75;61.92871;947.3945;;;;
2019/04/07 18:27:40;;;;;;;7.7;7;;;;;;;13.38;57.74512;947.5374;;;;
2019/04/07 18:33:18;;;;;;;9.7;8.5;;;;;;;13.39;57.5957;947.6033;;;;
2019/04/07 18:36:53;;;;;;;10.8;9.8;;;;;;;13.32;58.05176;947.6944;;;;
2019/04/07 18:40:25;;;;;;;9.3;8.3;;;;;;;13.12;59.18164;947.7299;;;;
2019/04/07 18:47:34;;;;;;;8.7;7;;;;;;;12.88;60.31543;947.8466;;;;
2019/04/07 18:54:18;;;;;;;9.2;7.6;;;;;;;12.8;60.94531;947.8703;;;;
2019/04/07 19:01:18;;;;;;;7.6;6.9;;;;;;;12.5;62.10352;947.8502;;;;
2019/04/07 19:04:58;;;;;;;8;7.3;;;;;;;12.47;62.16797;947.9272;;;;
2019/04/07 19:08:26;;;;;;;8.4;7.5;;;;;;;12.38;62.58691;947.9135;;;;
2019/04/07 19:12:03;;;;;;;8.1;7.3;;;;;;;12.24;63.17188;947.9745;;;;
2019/04/07 19:16:08;;;;;;;8.2;7.4;;;;;;;12.13;63.87793;947.9885;;;;
2019/04/07 19:18:56;;;;;;;8.4;7.5;;;;;;;12.08;64.74316;948.0208;;;;
2019/04/07 19:25:12;;;;;;;10.2;8.4;;;;;;;12.64;63.17188;948.0887;;;;